< < Back
Terminal Aerodrome Forecast


Current Version              Previous Versions:   1  2  3  4  5  6  7  8  9  

Terminal Aerodrome Forecast

137
FTUS44 KBMX 220100 AAA
TAFTCL
TAF AMD
KTCL 220111Z 2201/2224 36004KT P6SM SKC
     FM221400 02007KT P6SM SKC=



Latest METAR

710
SAUS70 KWBC 230100 RRF
MTRTCL
METAR KTCL 230053Z 36005KT 10SM CLR 14/07 A3014 RMK AO2 SLP207
T01390067


USA.gov is the U.S. government's official web portal to all federal, state and local government web resources and services.